createdAt,value
2022-10-11T00:03:00.300Z,81.00
2022-10-11T00:06:37.898Z,80.90
2022-10-11T00:10:13.029Z,81.00
2022-10-11T00:13:48.911Z,81.10
2022-10-11T00:17:24.702Z,81.70
2022-10-11T00:21:06.088Z,81.60
2022-10-11T00:24:41.147Z,81.40
2022-10-11T00:28:16.907Z,81.50
2022-10-11T00:31:52.785Z,81.40
2022-10-11T00:35:28.667Z,81.60
2022-10-11T00:39:05.334Z,81.60
2022-10-11T00:42:41.956Z,81.60
2022-10-11T00:46:29.966Z,82.50
2022-10-11T00:50:10.856Z,81.80
2022-10-11T00:53:49.912Z,81.80
2022-10-11T00:57:29.873Z,81.80
2022-10-11T01:01:05.005Z,82.10
2022-10-11T01:05:28.168Z,81.90
2022-10-11T01:09:02.813Z,82.00
2022-10-11T01:12:48.485Z,81.90
2022-10-11T01:16:29.739Z,81.90
2022-10-11T01:20:37.447Z,81.80
2022-10-11T01:25:02.246Z,81.70
2022-10-11T01:28:44.556Z,81.70
2022-10-11T01:32:25.515Z,81.50
2022-10-11T01:36:09.561Z,81.60
2022-10-11T01:39:49.341Z,82.00
2022-10-11T01:43:27.030Z,82.10
2022-10-11T01:47:02.405Z,82.20
2022-10-11T01:50:46.987Z,82.30
2022-10-11T01:54:56.614Z,82.10
2022-10-11T01:58:41.268Z,82.20
2022-10-11T02:02:33.483Z,81.80
2022-10-11T02:06:13.424Z,81.50
2022-10-11T02:09:55.173Z,81.80
2022-10-11T02:13:35.145Z,82.10
2022-10-11T02:17:15.020Z,82.40
2022-10-11T02:20:52.967Z,82.30
2022-10-11T02:24:32.651Z,82.30
2022-10-11T02:28:11.438Z,82.40
2022-10-11T02:31:47.550Z,82.60
2022-10-11T02:35:28.024Z,82.50
2022-10-11T02:39:08.479Z,82.60
2022-10-11T02:42:46.753Z,82.40
2022-10-11T02:46:23.742Z,83.30
2022-10-11T02:50:00.816Z,82.50
2022-10-11T02:53:37.372Z,82.70
2022-10-11T02:57:13.453Z,82.50
2022-10-11T03:00:49.053Z,82.40
2022-10-11T03:04:24.960Z,82.50
2022-10-11T03:08:00.578Z,82.10
2022-10-11T03:11:36.437Z,82.20
2022-10-11T03:15:12.466Z,82.00
2022-10-11T03:18:48.211Z,81.80
2022-10-11T03:22:23.862Z,82.00
2022-10-11T03:25:59.597Z,82.10
2022-10-11T03:29:35.407Z,82.10
2022-10-11T03:33:11.226Z,82.00
2022-10-11T03:36:47.035Z,82.10
2022-10-11T03:40:22.950Z,82.50
2022-10-11T03:43:58.931Z,82.70
2022-10-11T03:47:46.412Z,82.70
2022-10-11T03:51:22.083Z,82.60
2022-10-11T03:54:59.566Z,82.70
2022-10-11T03:58:35.286Z,82.90
2022-10-11T04:02:11.503Z,83.00
2022-10-11T04:05:46.885Z,83.00
2022-10-11T04:09:37.083Z,83.00
2022-10-11T04:13:13.131Z,82.60
2022-10-11T04:16:48.742Z,82.60
2022-10-11T04:20:24.556Z,82.70
2022-10-11T04:24:00.349Z,82.60
2022-10-11T04:27:36.189Z,82.50
2022-10-11T04:31:11.920Z,82.40
2022-10-11T04:34:47.874Z,82.40
2022-10-11T04:38:24.115Z,82.20
2022-10-11T04:41:59.371Z,82.30
2022-10-11T04:45:35.271Z,82.50
2022-10-11T04:49:10.929Z,82.60
2022-10-11T04:52:46.846Z,82.50
2022-10-11T04:56:22.577Z,82.70
2022-10-11T04:59:58.596Z,82.30
2022-10-11T05:03:34.455Z,82.40
2022-10-11T05:07:10.024Z,82.40
2022-10-11T05:10:57.790Z,82.40
2022-10-11T05:14:44.970Z,82.60
2022-10-11T05:18:20.678Z,82.60
2022-10-11T05:21:57.337Z,82.60
2022-10-11T05:25:33.677Z,82.60
2022-10-11T05:29:09.540Z,82.50
2022-10-11T05:32:45.314Z,82.50
2022-10-11T05:36:21.469Z,82.70
2022-10-11T05:39:56.930Z,82.80
2022-10-11T05:43:33.106Z,82.90
2022-10-11T05:47:08.596Z,82.80
2022-10-11T05:50:44.296Z,82.90
2022-10-11T05:54:32.513Z,82.80
2022-10-11T05:58:08.946Z,82.90
2022-10-11T06:01:45.168Z,83.00
2022-10-11T06:05:21.146Z,83.00
2022-10-11T06:08:56.825Z,82.80
2022-10-11T06:12:32.622Z,82.80
2022-10-11T06:16:22.250Z,82.20
2022-10-11T06:20:16.614Z,82.10
2022-10-11T06:24:14.921Z,82.50
2022-10-11T06:28:07.904Z,82.10
2022-10-11T06:31:58.339Z,81.50
2022-10-11T06:35:47.712Z,81.30
2022-10-11T06:39:41.459Z,81.50
2022-10-11T06:43:31.269Z,80.70
2022-10-11T06:47:21.413Z,79.80
2022-10-11T06:51:14.633Z,79.60
2022-10-11T06:55:07.658Z,78.50
2022-10-11T06:58:57.609Z,77.30
2022-10-11T07:02:48.556Z,76.70
2022-10-11T07:06:42.129Z,75.70
2022-10-11T07:10:41.168Z,68.80
2022-10-11T07:14:30.726Z,62.10
2022-10-11T07:18:33.205Z,57.40
2022-10-11T07:22:25.559Z,55.80
2022-10-11T07:26:15.924Z,53.90
2022-10-11T07:30:10.816Z,50.10
2022-10-11T07:34:03.861Z,48.20
2022-10-11T07:37:57.607Z,46.60
2022-10-11T07:41:47.517Z,46.40
2022-10-11T07:45:38.473Z,46.70
2022-10-11T07:49:37.136Z,46.20
2022-10-11T07:53:29.666Z,46.50
2022-10-11T07:57:19.640Z,47.20
2022-10-11T08:01:18.839Z,47.40
2022-10-11T08:05:11.409Z,46.30
2022-10-11T08:09:13.496Z,46.50
2022-10-11T08:13:04.550Z,46.60
2022-10-11T08:17:06.773Z,45.50
2022-10-11T08:21:07.594Z,45.50
2022-10-11T08:25:15.740Z,46.60
2022-10-11T08:29:20.255Z,46.30
2022-10-11T08:33:13.586Z,43.30
2022-10-11T08:37:06.970Z,41.50
2022-10-11T08:41:00.063Z,40.20
2022-10-11T08:45:10.489Z,38.40
2022-10-11T08:49:14.514Z,38.90
2022-10-11T08:53:09.017Z,37.60
2022-10-11T08:56:59.199Z,37.20
2022-10-11T09:00:53.739Z,35.90
2022-10-11T09:04:29.194Z,35.50
2022-10-11T09:08:12.743Z,35.00
2022-10-11T09:11:59.236Z,36.40
2022-10-11T09:15:43.274Z,35.80
2022-10-11T09:19:42.213Z,34.90
2022-10-11T09:23:33.119Z,34.80
2022-10-11T09:27:23.406Z,34.40
2022-10-11T09:31:11.233Z,36.60
2022-10-11T09:34:38.069Z,38.90
2022-10-11T09:38:06.957Z,39.00
2022-10-11T09:41:36.639Z,39.50
2022-10-11T09:45:02.939Z,39.20
2022-10-11T09:48:34.048Z,38.00
2022-10-11T09:52:01.160Z,38.20
2022-10-11T09:55:34.397Z,38.60
2022-10-11T09:59:27.982Z,40.70
2022-10-11T10:02:53.726Z,41.50
2022-10-11T10:06:24.521Z,42.70
2022-10-11T10:09:49.002Z,42.80
2022-10-11T10:13:21.962Z,41.60
2022-10-11T10:16:45.616Z,43.70
2022-10-11T10:20:21.813Z,44.40
2022-10-11T10:23:54.627Z,44.10
2022-10-11T10:27:22.116Z,44.10
2022-10-11T10:30:54.254Z,44.60
2022-10-11T10:34:22.176Z,45.10
2022-10-11T10:37:54.049Z,46.20
2022-10-11T10:41:20.030Z,46.00
2022-10-11T10:44:45.148Z,45.90
2022-10-11T10:48:19.388Z,46.30
2022-10-11T10:51:54.566Z,47.50
2022-10-11T10:55:26.393Z,48.60
2022-10-11T10:59:11.516Z,49.20
2022-10-11T11:02:42.679Z,49.50
2022-10-11T11:06:09.699Z,50.60
2022-10-11T11:09:46.195Z,51.90
2022-10-11T11:13:20.241Z,52.30
2022-10-11T11:16:50.985Z,52.40
2022-10-11T11:20:25.761Z,52.00
2022-10-11T11:23:54.925Z,51.70
2022-10-11T11:27:31.891Z,51.10
2022-10-11T11:31:02.707Z,51.10
2022-10-11T11:34:32.407Z,49.20
2022-10-11T11:38:06.238Z,49.20
2022-10-11T11:41:37.006Z,49.70
2022-10-11T11:45:05.195Z,49.40
2022-10-11T11:48:28.929Z,48.70
2022-10-11T11:51:54.948Z,48.80
2022-10-11T11:55:24.617Z,49.10
2022-10-11T11:58:53.456Z,49.40
2022-10-11T12:02:38.412Z,49.10
2022-10-11T12:06:23.316Z,49.80
2022-10-11T12:09:51.221Z,49.40
2022-10-11T12:13:21.094Z,49.50
2022-10-11T12:17:13.842Z,49.50
2022-10-11T12:20:41.267Z,49.10
2022-10-11T12:24:13.335Z,48.80
2022-10-11T12:27:40.422Z,49.10
2022-10-11T12:31:08.117Z,48.30
2022-10-11T12:34:37.229Z,48.50
2022-10-11T12:38:14.119Z,48.60
2022-10-11T12:41:50.360Z,47.00
2022-10-11T12:45:33.912Z,46.50
2022-10-11T12:48:59.931Z,46.40
2022-10-11T12:52:32.926Z,46.00
2022-10-11T12:56:02.927Z,46.40
2022-10-11T12:59:27.743Z,46.50
2022-10-11T13:02:53.016Z,45.50
2022-10-11T13:06:19.589Z,45.20
2022-10-11T13:09:48.981Z,43.70
2022-10-11T13:13:22.361Z,43.30
2022-10-11T13:16:51.785Z,43.80
2022-10-11T13:20:21.047Z,44.20
2022-10-11T13:23:44.720Z,43.90
2022-10-11T13:27:09.141Z,43.80
2022-10-11T13:30:35.171Z,43.60
2022-10-11T13:34:00.094Z,43.70
2022-10-11T13:37:27.494Z,43.20
2022-10-11T13:40:51.744Z,42.80
2022-10-11T13:44:15.373Z,42.60
2022-10-11T13:47:39.519Z,42.30
2022-10-11T13:51:07.598Z,43.10
2022-10-11T13:54:57.704Z,43.40
2022-10-11T13:58:27.518Z,43.90
2022-10-11T14:02:01.230Z,44.40
2022-10-11T14:05:29.908Z,45.30
2022-10-11T14:08:56.616Z,45.20
2022-10-11T14:12:40.804Z,46.00
2022-10-11T14:16:10.807Z,45.80
2022-10-11T14:19:34.342Z,44.70
2022-10-11T14:22:58.386Z,44.70
2022-10-11T14:26:23.800Z,45.20
2022-10-11T14:30:00.476Z,45.30
2022-10-11T14:33:32.586Z,45.40
2022-10-11T14:36:56.252Z,45.70
2022-10-11T14:40:23.003Z,45.40
2022-10-11T14:43:46.732Z,44.90
2022-10-11T14:47:15.700Z,45.10
2022-10-11T14:50:43.767Z,45.50
2022-10-11T14:54:07.666Z,45.80
2022-10-11T14:57:31.451Z,45.60
2022-10-11T15:00:55.031Z,45.70
2022-10-11T15:04:20.471Z,45.80
2022-10-11T15:07:44.040Z,45.60
2022-10-11T15:11:08.622Z,45.80
2022-10-11T15:14:32.172Z,46.10
2022-10-11T15:17:57.109Z,45.50
2022-10-11T15:21:25.001Z,45.60
2022-10-11T15:24:51.640Z,45.90
2022-10-11T15:28:21.805Z,46.80
2022-10-11T15:31:45.610Z,46.20
2022-10-11T15:35:10.089Z,46.70
2022-10-11T15:38:35.573Z,46.20
2022-10-11T15:41:59.710Z,46.60
2022-10-11T15:45:28.431Z,47.10
2022-10-11T15:48:53.112Z,47.00
2022-10-11T15:52:17.018Z,47.10
2022-10-11T15:55:44.641Z,47.10
2022-10-11T15:59:08.363Z,47.70
2022-10-11T16:02:32.450Z,47.50
2022-10-11T16:06:01.082Z,47.90
2022-10-11T16:09:27.500Z,48.40
2022-10-11T16:12:52.491Z,48.50
2022-10-11T16:16:16.049Z,48.70
2022-10-11T16:19:39.589Z,49.40
2022-10-11T16:23:03.226Z,50.30
2022-10-11T16:26:26.957Z,50.80
2022-10-11T16:29:51.958Z,51.20
2022-10-11T16:33:15.529Z,51.50
2022-10-11T16:36:42.373Z,51.70
2022-10-11T16:40:07.384Z,52.30
2022-10-11T16:43:30.927Z,52.70
2022-10-11T16:46:56.587Z,53.00
2022-10-11T16:50:21.254Z,53.20
2022-10-11T16:53:44.858Z,54.30
2022-10-11T16:57:09.274Z,53.90
2022-10-11T17:00:32.909Z,54.20
2022-10-11T17:03:58.113Z,54.40
2022-10-11T17:07:23.302Z,54.80
2022-10-11T17:10:47.526Z,55.00
2022-10-11T17:14:12.783Z,55.10
2022-10-11T17:17:36.469Z,55.30
2022-10-11T17:21:06.017Z,55.50
2022-10-11T17:24:29.612Z,55.60
2022-10-11T17:27:55.806Z,55.50
2022-10-11T17:31:22.732Z,55.50
2022-10-11T17:34:48.504Z,55.70
2022-10-11T17:38:13.552Z,56.10
2022-10-11T17:41:37.667Z,56.10
2022-10-11T17:45:01.580Z,56.30
2022-10-11T17:48:25.341Z,56.60
2022-10-11T17:51:49.162Z,56.70
2022-10-11T17:55:14.122Z,56.90
2022-10-11T17:58:38.469Z,57.60
2022-10-11T18:02:02.176Z,57.20
2022-10-11T18:05:25.854Z,57.40
2022-10-11T18:08:49.454Z,57.50
2022-10-11T18:12:14.430Z,57.50
2022-10-11T18:15:40.947Z,57.50
2022-10-11T18:19:07.514Z,57.70
2022-10-11T18:22:31.082Z,57.70
2022-10-11T18:25:55.126Z,58.50
2022-10-11T18:29:20.110Z,58.00
2022-10-11T18:32:43.944Z,58.10
2022-10-11T18:36:13.257Z,58.20
2022-10-11T18:39:36.948Z,58.50
2022-10-11T18:43:00.472Z,58.50
2022-10-11T18:46:26.534Z,58.60
2022-10-11T18:49:50.098Z,58.50
2022-10-11T18:53:13.791Z,58.50
2022-10-11T18:56:37.694Z,58.50
2022-10-11T19:00:07.306Z,58.60
2022-10-11T19:03:37.365Z,58.50
2022-10-11T19:07:01.424Z,58.90
2022-10-11T19:10:25.136Z,58.90
2022-10-11T19:13:49.639Z,59.10
2022-10-11T19:17:14.329Z,59.10
2022-10-11T19:20:39.409Z,59.30
2022-10-11T19:24:02.970Z,59.30
2022-10-11T19:27:26.776Z,59.30
2022-10-11T19:30:50.428Z,59.40
2022-10-11T19:34:14.410Z,59.50
2022-10-11T19:37:39.368Z,59.30
2022-10-11T19:41:03.773Z,59.20
2022-10-11T19:44:27.579Z,59.50
2022-10-11T19:47:51.255Z,59.60
2022-10-11T19:51:17.286Z,59.60
2022-10-11T19:54:42.334Z,59.80
2022-10-11T19:58:08.360Z,61.20
2022-10-11T20:01:34.185Z,61.90
2022-10-11T20:04:57.784Z,62.20
2022-10-11T20:08:21.630Z,63.10
2022-10-11T20:11:46.478Z,63.40
2022-10-11T20:15:10.828Z,63.70
2022-10-11T20:18:34.782Z,64.00
2022-10-11T20:21:58.300Z,64.00
2022-10-11T20:25:21.952Z,64.40
2022-10-11T20:28:46.994Z,64.30
2022-10-11T20:32:10.740Z,64.40
2022-10-11T20:35:34.267Z,64.40
2022-10-11T20:38:59.277Z,64.80
2022-10-11T20:42:25.280Z,65.30
2022-10-11T20:46:03.769Z,65.60
2022-10-11T20:49:27.374Z,65.40
2022-10-11T20:52:50.958Z,65.20
2022-10-11T20:56:19.497Z,66.10
2022-10-11T20:59:43.034Z,65.80
2022-10-11T21:03:08.389Z,66.10
2022-10-11T21:06:33.583Z,66.10
2022-10-11T21:09:57.160Z,67.20
2022-10-11T21:13:20.903Z,66.40
2022-10-11T21:16:44.871Z,66.40
2022-10-11T21:20:11.116Z,66.20
2022-10-11T21:23:34.864Z,66.90
2022-10-11T21:27:00.757Z,66.80
2022-10-11T21:30:24.939Z,66.80
2022-10-11T21:33:49.529Z,67.00
2022-10-11T21:37:15.444Z,67.10
2022-10-11T21:40:40.674Z,67.00
2022-10-11T21:44:05.314Z,67.20
2022-10-11T21:47:30.740Z,67.00
2022-10-11T21:50:55.322Z,67.10
2022-10-11T21:54:20.342Z,66.80
2022-10-11T21:57:47.106Z,67.10
2022-10-11T22:01:12.057Z,67.70
2022-10-11T22:04:35.988Z,67.50
2022-10-11T22:07:59.920Z,67.80
2022-10-11T22:11:25.548Z,67.90
2022-10-11T22:14:49.956Z,68.40
2022-10-11T22:18:14.102Z,69.30
2022-10-11T22:21:42.546Z,68.60
2022-10-11T22:25:09.898Z,68.60
2022-10-11T22:28:36.173Z,68.60
2022-10-11T22:31:59.963Z,69.10
2022-10-11T22:35:24.151Z,69.10
2022-10-11T22:38:48.357Z,69.10
2022-10-11T22:42:11.947Z,68.80
2022-10-11T22:45:37.334Z,68.70
2022-10-11T22:49:00.972Z,68.70
2022-10-11T22:52:24.962Z,69.00
2022-10-11T22:55:49.530Z,69.00
2022-10-11T22:59:14.022Z,69.00
2022-10-11T23:02:39.356Z,68.90
2022-10-11T23:06:03.114Z,69.00
2022-10-11T23:09:28.807Z,68.90
2022-10-11T23:12:52.410Z,69.40
2022-10-11T23:16:18.212Z,69.40
2022-10-11T23:19:45.974Z,69.30
2022-10-11T23:23:10.020Z,69.10
2022-10-11T23:26:34.047Z,68.80
2022-10-11T23:30:06.446Z,68.70
2022-10-11T23:33:30.735Z,68.70
2022-10-11T23:36:56.370Z,68.70
2022-10-11T23:40:19.918Z,69.00
2022-10-11T23:43:44.042Z,68.90
2022-10-11T23:47:08.500Z,69.00
2022-10-11T23:50:41.836Z,69.30
2022-10-11T23:54:09.401Z,69.20
2022-10-11T23:57:33.766Z,69.40
